createdAt,value
2022-12-18T00:01:15.404Z,65.84
2022-12-18T00:03:42.479Z,64.97
2022-12-18T00:06:10.138Z,65.88
2022-12-18T00:08:36.939Z,65.10
2022-12-18T00:11:13.202Z,65.09
2022-12-18T00:13:40.572Z,65.13
2022-12-18T00:16:10.679Z,64.86
2022-12-18T00:18:38.255Z,65.11
2022-12-18T00:21:07.774Z,65.04
2022-12-18T00:23:36.258Z,65.22
2022-12-18T00:26:06.940Z,64.96
2022-12-18T00:28:34.104Z,64.77
2022-12-18T00:31:05.522Z,64.47
2022-12-18T00:33:32.812Z,64.55
2022-12-18T00:36:08.218Z,64.29
2022-12-18T00:38:36.029Z,64.70
2022-12-18T00:41:02.931Z,64.22
2022-12-18T00:43:29.598Z,64.46
2022-12-18T00:45:56.295Z,64.73
2022-12-18T00:48:23.085Z,64.28
2022-12-18T00:50:50.890Z,64.56
2022-12-18T00:53:17.609Z,64.34
2022-12-18T00:55:45.047Z,63.94
2022-12-18T00:58:12.423Z,64.22
2022-12-18T01:00:39.172Z,64.10
2022-12-18T01:03:06.577Z,64.44
2022-12-18T01:05:33.903Z,64.20
2022-12-18T01:08:00.945Z,63.97
2022-12-18T01:10:27.734Z,63.93
2022-12-18T01:12:54.355Z,63.34
2022-12-18T01:15:21.493Z,63.95
2022-12-18T01:17:48.112Z,64.27
2022-12-18T01:20:14.969Z,64.16
2022-12-18T01:22:41.487Z,64.13
2022-12-18T01:25:08.750Z,64.74
2022-12-18T01:27:35.517Z,64.73
2022-12-18T01:30:02.240Z,64.75
2022-12-18T01:32:32.289Z,64.70
2022-12-18T01:34:58.918Z,63.83
2022-12-18T01:37:25.476Z,64.50
2022-12-18T01:39:55.328Z,64.19
2022-12-18T01:42:23.087Z,64.47
2022-12-18T01:45:06.192Z,64.24
2022-12-18T01:47:39.971Z,64.44
2022-12-18T01:50:11.492Z,64.43
2022-12-18T01:52:43.690Z,64.33
2022-12-18T01:55:12.155Z,63.82
2022-12-18T01:57:41.403Z,63.88
2022-12-18T02:00:20.148Z,64.34
2022-12-18T02:02:48.037Z,63.82
2022-12-18T02:05:40.228Z,64.16
2022-12-18T02:08:13.943Z,63.82
2022-12-18T02:10:49.731Z,64.33
2022-12-18T02:13:29.040Z,64.69
2022-12-18T02:16:17.381Z,63.83
2022-12-18T02:18:49.313Z,64.61
2022-12-18T02:21:36.217Z,64.25
2022-12-18T02:24:17.950Z,63.83
2022-12-18T02:26:58.196Z,63.73
2022-12-18T02:29:36.577Z,63.38
2022-12-18T02:32:08.482Z,63.99
2022-12-18T02:34:39.185Z,64.09
2022-12-18T02:37:12.272Z,63.84
2022-12-18T02:39:42.754Z,63.66
2022-12-18T02:42:09.859Z,63.75
2022-12-18T02:44:45.564Z,63.56
2022-12-18T02:47:13.825Z,63.86
2022-12-18T02:49:58.919Z,63.31
2022-12-18T02:52:31.525Z,63.86
2022-12-18T02:55:01.005Z,63.19
2022-12-18T02:57:57.632Z,63.54
2022-12-18T03:00:32.012Z,63.84
2022-12-18T03:03:04.483Z,63.37
2022-12-18T03:05:54.715Z,63.64
2022-12-18T03:08:28.980Z,63.60
2022-12-18T03:11:10.925Z,63.91
2022-12-18T03:13:43.663Z,64.30
2022-12-18T03:16:16.019Z,64.07
2022-12-18T03:18:55.754Z,63.77
2022-12-18T03:21:31.094Z,64.12
2022-12-18T03:23:58.175Z,63.96
2022-12-18T03:26:27.838Z,63.78
2022-12-18T03:29:00.944Z,63.68
2022-12-18T03:31:30.709Z,64.03
2022-12-18T03:34:02.361Z,64.57
2022-12-18T03:36:32.675Z,64.40
2022-12-18T03:38:59.407Z,64.40
2022-12-18T03:41:32.088Z,64.19
2022-12-18T03:44:11.944Z,64.84
2022-12-18T03:47:02.861Z,64.33
2022-12-18T03:49:52.840Z,64.91
2022-12-18T03:52:27.757Z,64.00
2022-12-18T03:54:56.118Z,64.58
2022-12-18T03:57:26.468Z,64.59
2022-12-18T03:59:58.533Z,65.15
2022-12-18T04:02:26.298Z,64.87
2022-12-18T04:05:00.716Z,64.50
2022-12-18T04:07:28.436Z,64.69
2022-12-18T04:09:59.351Z,65.04
2022-12-18T04:12:29.810Z,65.17
2022-12-18T04:14:56.661Z,64.70
2022-12-18T04:17:23.679Z,64.94
2022-12-18T04:19:50.589Z,64.84
2022-12-18T04:22:17.399Z,64.78
2022-12-18T04:24:44.242Z,64.51
2022-12-18T04:27:10.812Z,64.68
2022-12-18T04:29:37.344Z,64.56
2022-12-18T04:32:03.936Z,64.24
2022-12-18T04:34:30.518Z,64.77
2022-12-18T04:36:57.582Z,64.28
2022-12-18T04:39:24.283Z,64.41
2022-12-18T04:41:51.587Z,63.84
2022-12-18T04:44:18.301Z,64.40
2022-12-18T04:46:44.935Z,64.02
2022-12-18T04:49:11.830Z,64.30
2022-12-18T04:51:39.354Z,64.37
2022-12-18T04:54:05.992Z,64.13
2022-12-18T04:56:33.115Z,64.02
2022-12-18T04:58:59.684Z,63.98
2022-12-18T05:01:32.573Z,64.17
2022-12-18T05:04:01.572Z,65.05
2022-12-18T05:06:28.389Z,64.53
2022-12-18T05:08:54.980Z,64.49
2022-12-18T05:11:21.575Z,64.47
2022-12-18T05:13:48.490Z,64.32
2022-12-18T05:16:15.766Z,64.23
2022-12-18T05:18:42.908Z,64.04
2022-12-18T05:21:09.728Z,63.91
2022-12-18T05:23:37.115Z,64.28
2022-12-18T05:26:06.467Z,63.93
2022-12-18T05:28:35.499Z,63.78
2022-12-18T05:31:04.257Z,64.03
2022-12-18T05:33:34.168Z,64.30
2022-12-18T05:36:02.952Z,64.20
2022-12-18T05:38:31.007Z,64.23
2022-12-18T05:40:57.859Z,64.00
2022-12-18T05:43:26.414Z,63.82
2022-12-18T05:45:54.022Z,64.37
2022-12-18T05:48:21.146Z,64.26
2022-12-18T05:50:49.573Z,63.70
2022-12-18T05:53:18.219Z,64.23
2022-12-18T05:55:45.570Z,64.19
2022-12-18T05:58:13.827Z,64.05
2022-12-18T06:00:45.915Z,64.51
2022-12-18T06:03:14.723Z,63.98
2022-12-18T06:05:44.567Z,63.86
2022-12-18T06:08:12.552Z,64.15
2022-12-18T06:10:39.660Z,63.85
2022-12-18T06:13:07.064Z,63.54
2022-12-18T06:15:34.008Z,62.97
2022-12-18T06:18:02.031Z,63.35
2022-12-18T06:20:33.665Z,63.51
2022-12-18T06:23:00.831Z,63.73
2022-12-18T06:25:27.405Z,63.84
2022-12-18T06:27:54.060Z,63.99
2022-12-18T06:30:20.815Z,63.85
2022-12-18T06:32:54.654Z,63.47
2022-12-18T06:35:23.620Z,63.87
2022-12-18T06:37:50.252Z,63.74
2022-12-18T06:40:17.347Z,64.19
2022-12-18T06:42:43.999Z,63.91
2022-12-18T06:45:11.033Z,63.75
2022-12-18T06:47:37.666Z,63.78
2022-12-18T06:50:04.411Z,63.59
2022-12-18T06:52:33.401Z,63.46
2022-12-18T06:55:00.223Z,63.63
2022-12-18T06:57:26.846Z,63.68
2022-12-18T06:59:53.593Z,63.76
2022-12-18T07:02:20.255Z,63.47
2022-12-18T07:04:46.970Z,63.40
2022-12-18T07:07:13.563Z,63.46
2022-12-18T07:09:40.208Z,63.49
2022-12-18T07:12:07.835Z,63.35
2022-12-18T07:14:34.603Z,63.56
2022-12-18T07:17:01.313Z,63.73
2022-12-18T07:19:28.153Z,64.01
2022-12-18T07:21:55.852Z,63.66
2022-12-18T07:24:22.430Z,63.68
2022-12-18T07:26:49.060Z,64.32
2022-12-18T07:29:15.827Z,63.91
2022-12-18T07:31:42.600Z,63.77
2022-12-18T07:34:13.827Z,64.00
2022-12-18T07:36:40.396Z,63.64
2022-12-18T07:39:07.080Z,63.31
2022-12-18T07:41:33.676Z,63.68
2022-12-18T07:44:00.458Z,63.74
2022-12-18T07:46:27.015Z,63.97
2022-12-18T07:48:53.622Z,63.74
2022-12-18T07:51:20.299Z,63.93
2022-12-18T07:53:48.793Z,63.98
2022-12-18T07:56:28.572Z,63.85
2022-12-18T07:58:56.460Z,63.77
2022-12-18T08:01:26.665Z,63.92
2022-12-18T08:03:53.546Z,63.72
2022-12-18T08:06:22.433Z,64.07
2022-12-18T08:08:52.398Z,63.88
2022-12-18T08:11:20.407Z,63.84
2022-12-18T08:13:48.274Z,63.47
2022-12-18T08:16:15.716Z,63.33
2022-12-18T08:18:42.368Z,63.52
2022-12-18T08:21:19.166Z,63.71
2022-12-18T08:23:50.298Z,63.89
2022-12-18T08:26:18.612Z,63.77
2022-12-18T08:28:45.847Z,63.75
2022-12-18T08:31:12.824Z,63.71
2022-12-18T08:33:40.422Z,63.55
2022-12-18T08:36:10.106Z,63.71
2022-12-18T08:38:36.898Z,63.49
2022-12-18T08:41:08.444Z,63.51
2022-12-18T08:43:53.752Z,63.65
2022-12-18T08:46:22.352Z,63.57
2022-12-18T08:48:51.244Z,63.61
2022-12-18T08:51:18.600Z,63.92
2022-12-18T08:53:45.635Z,63.62
2022-12-18T08:56:15.853Z,63.42
2022-12-18T08:58:43.341Z,63.66
2022-12-18T09:01:11.915Z,63.27
2022-12-18T09:03:39.755Z,63.10
2022-12-18T09:06:07.104Z,63.38
2022-12-18T09:08:38.032Z,62.94
2022-12-18T09:11:05.096Z,62.76
2022-12-18T09:13:32.143Z,62.63
2022-12-18T09:15:59.215Z,62.75
2022-12-18T09:18:26.119Z,62.75
2022-12-18T09:20:53.910Z,62.80
2022-12-18T09:23:23.992Z,63.08
2022-12-18T09:25:50.555Z,63.28
2022-12-18T09:28:19.201Z,63.39
2022-12-18T09:30:50.951Z,62.91
2022-12-18T09:33:18.438Z,63.10
2022-12-18T09:35:48.167Z,63.03
2022-12-18T09:38:18.899Z,62.87
2022-12-18T09:40:50.352Z,63.65
2022-12-18T09:43:39.764Z,63.36
2022-12-18T09:46:11.384Z,63.12
2022-12-18T09:48:45.199Z,63.20
2022-12-18T09:51:20.077Z,62.70
2022-12-18T09:53:56.739Z,62.62
2022-12-18T09:56:25.985Z,62.92
2022-12-18T09:59:00.957Z,63.00
2022-12-18T10:01:36.356Z,62.42
2022-12-18T10:04:10.678Z,62.20
2022-12-18T10:06:48.787Z,62.47
2022-12-18T10:09:45.779Z,62.04
2022-12-18T10:12:15.427Z,62.29
2022-12-18T10:14:58.318Z,62.20
2022-12-18T10:18:06.660Z,62.38
2022-12-18T10:20:47.350Z,61.99
2022-12-18T10:23:38.049Z,62.45
2022-12-18T10:26:10.518Z,62.46
2022-12-18T10:28:40.338Z,62.49
2022-12-18T10:31:25.069Z,61.31
2022-12-18T10:33:54.712Z,61.91
2022-12-18T10:36:22.372Z,60.87
2022-12-18T10:38:50.728Z,61.18
2022-12-18T10:41:21.766Z,60.71
2022-12-18T10:43:48.943Z,61.00
2022-12-18T10:46:20.796Z,60.98
2022-12-18T10:48:47.397Z,60.93
2022-12-18T10:51:34.474Z,61.33
2022-12-18T10:54:27.278Z,61.54
2022-12-18T10:57:17.621Z,61.38
2022-12-18T10:59:56.599Z,61.60
2022-12-18T11:02:36.196Z,60.66
2022-12-18T11:05:06.329Z,60.60
2022-12-18T11:07:51.689Z,60.84
2022-12-18T11:10:20.026Z,59.91
2022-12-18T11:12:47.566Z,59.47
2022-12-18T11:15:25.635Z,60.21
2022-12-18T11:17:53.045Z,60.53
2022-12-18T11:20:36.782Z,60.39
2022-12-18T11:23:07.079Z,60.39
2022-12-18T11:25:35.967Z,59.91
2022-12-18T11:28:26.805Z,60.13
2022-12-18T11:31:16.568Z,59.48
2022-12-18T11:34:26.987Z,59.58
2022-12-18T11:36:49.136Z,59.22
2022-12-18T11:39:47.397Z,58.95
2022-12-18T11:42:19.526Z,59.33
2022-12-18T11:44:59.265Z,58.95
2022-12-18T11:47:44.082Z,59.20
2022-12-18T11:50:35.191Z,58.90
2022-12-18T11:53:06.150Z,59.17
2022-12-18T11:56:21.838Z,58.50
2022-12-18T11:59:09.569Z,58.95
2022-12-18T12:01:44.287Z,58.89
2022-12-18T12:04:24.490Z,58.16
2022-12-18T12:07:04.062Z,58.36
2022-12-18T12:09:48.724Z,58.45
2022-12-18T12:12:48.629Z,58.67
2022-12-18T12:15:25.087Z,58.01
2022-12-18T12:18:00.596Z,58.31
2022-12-18T12:20:45.699Z,57.98
2022-12-18T12:23:17.927Z,58.61
2022-12-18T12:25:47.722Z,58.73
2022-12-18T12:28:25.746Z,57.94
2022-12-18T12:31:19.747Z,58.34
2022-12-18T12:34:01.634Z,58.36
2022-12-18T12:36:56.660Z,58.17
2022-12-18T12:39:30.948Z,58.87
2022-12-18T12:42:17.171Z,57.74
2022-12-18T12:44:57.111Z,57.38
2022-12-18T12:47:40.172Z,58.04
2022-12-18T12:50:15.562Z,57.07
2022-12-18T12:52:50.527Z,57.54
2022-12-18T12:55:23.788Z,57.44
2022-12-18T12:57:55.039Z,57.51
2022-12-18T13:00:23.238Z,57.25
2022-12-18T13:02:52.482Z,57.53
2022-12-18T13:05:44.520Z,55.88
2022-12-18T13:08:22.931Z,56.66
2022-12-18T13:11:11.174Z,57.92
2022-12-18T13:13:55.374Z,57.86
2022-12-18T13:16:28.573Z,57.32
2022-12-18T13:19:00.367Z,56.88
2022-12-18T13:21:30.325Z,57.34
2022-12-18T13:23:58.358Z,56.61
2022-12-18T13:26:28.727Z,56.62
2022-12-18T13:28:57.959Z,56.67
2022-12-18T13:31:30.914Z,56.61
2022-12-18T13:34:28.048Z,57.12
2022-12-18T13:36:56.689Z,56.80
2022-12-18T13:39:35.028Z,56.53
2022-12-18T13:42:08.637Z,56.83
2022-12-18T13:44:40.838Z,56.19
2022-12-18T13:47:29.826Z,56.56
2022-12-18T13:49:57.557Z,56.67
2022-12-18T13:52:28.602Z,55.99
2022-12-18T13:55:01.513Z,57.08
2022-12-18T13:57:34.182Z,56.33
2022-12-18T14:00:24.165Z,55.65
2022-12-18T14:02:51.830Z,57.11
2022-12-18T14:05:36.837Z,56.47
2022-12-18T14:08:14.846Z,56.79
2022-12-18T14:10:49.521Z,57.07
2022-12-18T14:13:37.254Z,56.47
2022-12-18T14:16:06.863Z,56.72
2022-12-18T14:18:45.245Z,57.67
2022-12-18T14:21:30.415Z,57.55
2022-12-18T14:24:15.232Z,57.17
2022-12-18T14:26:45.667Z,57.55
2022-12-18T14:29:44.037Z,57.83
2022-12-18T14:32:19.567Z,57.90
2022-12-18T14:34:51.385Z,58.61
2022-12-18T14:37:28.507Z,58.81
2022-12-18T14:40:10.492Z,59.07
2022-12-18T14:42:38.488Z,59.16
2022-12-18T14:45:40.939Z,59.27
2022-12-18T14:48:13.787Z,59.37
2022-12-18T14:50:42.877Z,59.28
2022-12-18T14:53:22.744Z,59.48
2022-12-18T14:55:50.046Z,59.43
2022-12-18T14:58:20.011Z,59.16
2022-12-18T15:00:46.823Z,59.35
2022-12-18T15:03:20.005Z,59.69
2022-12-18T15:05:47.404Z,59.56
2022-12-18T15:08:36.572Z,59.83
2022-12-18T15:11:05.621Z,59.64
2022-12-18T15:13:35.627Z,59.78
2022-12-18T15:16:04.277Z,59.69
2022-12-18T15:18:42.552Z,60.05
2022-12-18T15:21:11.853Z,59.47
2022-12-18T15:23:44.808Z,59.69
2022-12-18T15:26:14.405Z,59.60
2022-12-18T15:28:59.547Z,59.23
2022-12-18T15:31:36.306Z,60.17
2022-12-18T15:34:10.891Z,59.93
2022-12-18T15:36:37.614Z,59.63
2022-12-18T15:39:06.875Z,59.94
2022-12-18T15:41:35.841Z,60.00
2022-12-18T15:44:03.840Z,60.51
2022-12-18T15:46:31.735Z,60.00
2022-12-18T15:49:02.642Z,60.15
2022-12-18T15:51:34.275Z,60.92
2022-12-18T15:54:04.941Z,60.38
2022-12-18T15:56:50.891Z,60.94
2022-12-18T15:59:20.230Z,60.62
2022-12-18T16:01:53.927Z,61.02
2022-12-18T16:04:22.357Z,60.90
2022-12-18T16:09:37.618Z,60.93
2022-12-18T16:12:04.339Z,61.39
2022-12-18T16:14:31.870Z,61.48
2022-12-18T16:17:01.339Z,61.20
2022-12-18T16:19:28.632Z,61.14
2022-12-18T16:21:57.776Z,61.42
2022-12-18T16:24:27.235Z,61.20
2022-12-18T16:26:55.000Z,61.33
2022-12-18T16:29:25.844Z,61.60
2022-12-18T16:31:53.145Z,62.05
2022-12-18T16:34:35.805Z,61.79
2022-12-18T16:37:08.311Z,61.83
2022-12-18T16:39:35.985Z,62.18
2022-12-18T16:42:06.024Z,62.30
2022-12-18T16:44:33.903Z,61.84
2022-12-18T16:47:03.418Z,62.22
2022-12-18T16:49:30.387Z,61.93
2022-12-18T16:51:57.309Z,61.80
2022-12-18T16:54:24.078Z,61.17
2022-12-18T16:56:53.828Z,61.44
2022-12-18T16:59:20.466Z,61.98
2022-12-18T17:01:47.760Z,61.88
2022-12-18T17:04:15.269Z,61.30
2022-12-18T17:06:44.085Z,61.15
2022-12-18T17:09:16.442Z,61.69
2022-12-18T17:11:43.811Z,61.73
2022-12-18T17:14:15.915Z,61.43
2022-12-18T17:16:43.021Z,61.61
2022-12-18T17:19:16.662Z,62.30
2022-12-18T17:21:45.611Z,62.04
2022-12-18T17:24:12.422Z,62.56
2022-12-18T17:26:39.104Z,62.14
2022-12-18T17:29:15.517Z,62.26
2022-12-18T17:31:42.956Z,61.78
2022-12-18T17:34:14.711Z,62.30
2022-12-18T17:36:42.320Z,62.74
2022-12-18T17:39:16.563Z,63.00
2022-12-18T17:41:43.465Z,62.72
2022-12-18T17:44:10.495Z,62.67
2022-12-18T17:46:37.138Z,62.89
2022-12-18T17:49:04.693Z,62.74
2022-12-18T17:51:31.319Z,62.96
2022-12-18T17:53:58.303Z,63.27
2022-12-18T17:56:28.424Z,63.33
2022-12-18T17:58:55.558Z,63.30
2022-12-18T18:01:24.924Z,63.23
2022-12-18T18:03:53.521Z,63.03
2022-12-18T18:06:21.186Z,63.12
2022-12-18T18:08:48.291Z,63.44
2022-12-18T18:11:36.264Z,63.22
2022-12-18T18:14:07.091Z,63.20
2022-12-18T18:16:37.119Z,62.97
2022-12-18T18:19:09.401Z,63.33
2022-12-18T18:21:39.295Z,62.99
2022-12-18T18:24:07.339Z,62.85
2022-12-18T18:26:35.545Z,63.38
2022-12-18T18:29:05.223Z,62.87
2022-12-18T18:31:35.255Z,63.54
2022-12-18T18:34:08.203Z,63.22
2022-12-18T18:36:34.964Z,63.41
2022-12-18T18:39:02.500Z,63.48
2022-12-18T18:41:30.625Z,63.16
2022-12-18T18:43:58.231Z,63.63
2022-12-18T18:46:25.751Z,63.70
2022-12-18T18:48:52.439Z,64.05
2022-12-18T18:51:21.513Z,64.26
2022-12-18T18:53:53.651Z,63.92
2022-12-18T18:59:09.628Z,64.03
2022-12-18T19:01:38.666Z,63.84
2022-12-18T19:04:08.199Z,64.04
2022-12-18T19:06:34.913Z,64.24
2022-12-18T19:09:05.021Z,64.62
2022-12-18T19:11:50.683Z,64.41
2022-12-18T19:14:17.520Z,64.96
2022-12-18T19:16:45.513Z,64.94
2022-12-18T19:19:13.570Z,64.92
2022-12-18T19:21:40.858Z,65.24
2022-12-18T19:24:10.793Z,64.94
2022-12-18T19:26:37.843Z,64.68
2022-12-18T19:29:12.105Z,64.82
2022-12-18T19:31:38.894Z,65.00
2022-12-18T19:34:07.145Z,64.70
2022-12-18T19:36:37.338Z,65.14
2022-12-18T19:39:10.250Z,65.52
2022-12-18T19:41:37.046Z,64.95
2022-12-18T19:44:08.278Z,64.94
2022-12-18T19:46:36.035Z,64.72
2022-12-18T19:49:05.752Z,65.25
2022-12-18T19:51:32.894Z,65.46
2022-12-18T19:54:01.863Z,64.85
2022-12-18T19:56:37.896Z,65.25
2022-12-18T19:59:05.463Z,65.18
2022-12-18T20:01:32.705Z,65.64
2022-12-18T20:04:01.096Z,65.30
2022-12-18T20:06:34.254Z,65.02
2022-12-18T20:09:04.297Z,65.24
2022-12-18T20:11:32.061Z,65.38
2022-12-18T20:14:03.603Z,64.88
2022-12-18T20:16:30.596Z,64.68
2022-12-18T20:18:58.407Z,64.66
2022-12-18T20:21:25.671Z,64.78
2022-12-18T20:23:52.412Z,64.65
2022-12-18T20:26:22.625Z,64.80
2022-12-18T20:28:49.365Z,64.68
2022-12-18T20:31:16.166Z,64.62
2022-12-18T20:33:43.296Z,64.79
2022-12-18T20:36:17.089Z,64.55
2022-12-18T20:38:48.438Z,64.76
2022-12-18T20:41:22.155Z,64.94
2022-12-18T20:43:48.789Z,65.20
2022-12-18T20:46:17.166Z,65.02
2022-12-18T20:48:44.916Z,65.39
2022-12-18T20:51:18.412Z,65.17
2022-12-18T20:53:46.442Z,65.17
2022-12-18T20:56:21.334Z,65.25
2022-12-18T20:58:49.626Z,64.93
2022-12-18T21:01:19.208Z,65.50
2022-12-18T21:03:46.683Z,65.44
2022-12-18T21:06:15.557Z,65.31
2022-12-18T21:08:42.540Z,65.07
2022-12-18T21:11:54.006Z,65.71
2022-12-18T21:14:23.860Z,65.56
2022-12-18T21:16:51.358Z,65.70
2022-12-18T21:19:20.907Z,65.69
2022-12-18T21:21:47.606Z,65.34
2022-12-18T21:24:14.781Z,65.53
2022-12-18T21:26:45.783Z,65.53
2022-12-18T21:29:20.969Z,65.16
2022-12-18T21:31:48.622Z,65.31
2022-12-18T21:34:21.387Z,64.96
2022-12-18T21:36:49.259Z,65.14
2022-12-18T21:39:16.360Z,65.32
2022-12-18T21:42:01.938Z,65.43
2022-12-18T21:44:29.132Z,65.63
2022-12-18T21:47:02.410Z,65.44
2022-12-18T21:49:36.167Z,65.92
2022-12-18T21:52:02.796Z,65.59
2022-12-18T21:54:30.175Z,65.20
2022-12-18T21:56:59.010Z,65.28
2022-12-18T21:59:35.023Z,65.42
2022-12-18T22:02:07.335Z,65.46
2022-12-18T22:04:34.294Z,65.83
2022-12-18T22:07:00.916Z,65.44
2022-12-18T22:09:28.229Z,65.55
2022-12-18T22:11:55.071Z,65.31
2022-12-18T22:14:22.235Z,65.14
2022-12-18T22:16:49.828Z,65.34
2022-12-18T22:19:17.914Z,65.00
2022-12-18T22:21:49.089Z,65.44
2022-12-18T22:24:19.726Z,65.22
2022-12-18T22:26:47.390Z,65.27
2022-12-18T22:29:41.374Z,65.54
2022-12-18T22:32:13.073Z,65.36
2022-12-18T22:34:41.852Z,65.43
2022-12-18T22:37:10.665Z,65.04
2022-12-18T22:39:37.246Z,65.39
2022-12-18T22:42:05.408Z,65.18
2022-12-18T22:44:35.065Z,65.32
2022-12-18T22:47:06.416Z,65.18
2022-12-18T22:49:34.805Z,65.40
2022-12-18T22:52:02.040Z,64.93
2022-12-18T22:54:28.625Z,65.20
2022-12-18T22:56:55.561Z,65.03
2022-12-18T22:59:23.323Z,64.63
2022-12-18T23:01:51.579Z,65.11
2022-12-18T23:04:30.600Z,65.07
2022-12-18T23:07:06.114Z,65.05
2022-12-18T23:09:33.436Z,65.20
2022-12-18T23:12:00.535Z,65.08
2022-12-18T23:14:28.256Z,65.13
2022-12-18T23:16:55.055Z,65.56
2022-12-18T23:19:23.583Z,65.26
2022-12-18T23:21:51.197Z,65.08
2022-12-18T23:24:17.969Z,65.25
2022-12-18T23:26:44.524Z,65.23
2022-12-18T23:29:11.272Z,65.45
2022-12-18T23:31:39.252Z,65.82
2022-12-18T23:34:06.490Z,65.65
2022-12-18T23:36:45.315Z,65.80
2022-12-18T23:39:27.550Z,65.33
2022-12-18T23:41:59.884Z,65.58
2022-12-18T23:44:26.729Z,65.66
2022-12-18T23:46:53.473Z,65.47
2022-12-18T23:49:20.112Z,65.70
2022-12-18T23:51:46.705Z,65.39
2022-12-18T23:54:13.338Z,65.51
2022-12-18T23:56:40.104Z,65.88
2022-12-18T23:59:06.771Z,65.90
